createdAt,value
2022-09-23T00:01:26.833Z,1.30
2022-09-23T00:03:56.393Z,1.30
2022-09-23T00:06:25.468Z,1.30
2022-09-23T00:08:53.493Z,1.30
2022-09-23T00:11:23.446Z,1.20
2022-09-23T00:13:54.668Z,1.20
2022-09-23T00:16:25.251Z,1.20
2022-09-23T00:18:53.324Z,1.20
2022-09-23T00:21:24.953Z,1.20
2022-09-23T00:23:53.037Z,1.10
2022-09-23T00:26:22.789Z,1.10
2022-09-23T00:28:51.993Z,1.10
2022-09-23T00:31:21.963Z,1.10
2022-09-23T00:33:54.814Z,1.00
2022-09-23T00:36:24.251Z,1.00
2022-09-23T00:38:52.139Z,1.00
2022-09-23T00:41:20.144Z,1.00
2022-09-23T00:43:49.953Z,1.00
2022-09-23T00:46:22.296Z,1.00
2022-09-23T00:48:54.877Z,1.00
2022-09-23T00:51:30.751Z,1.10
2022-09-23T00:53:58.859Z,1.00
2022-09-23T00:56:26.884Z,1.00
2022-09-23T00:58:55.292Z,1.00
2022-09-23T01:01:25.571Z,1.00
2022-09-23T01:03:55.452Z,1.00
2022-09-23T01:06:24.774Z,1.00
2022-09-23T01:08:53.478Z,1.00
2022-09-23T01:11:37.919Z,1.20
2022-09-23T01:14:26.266Z,1.20
2022-09-23T01:16:59.905Z,1.40
2022-09-23T01:19:47.553Z,1.50
2022-09-23T01:22:29.036Z,1.60
2022-09-23T01:25:22.678Z,1.70
2022-09-23T01:28:13.446Z,1.80
2022-09-23T01:30:49.490Z,1.90
2022-09-23T01:33:24.293Z,2.00
2022-09-23T01:36:08.471Z,2.00
2022-09-23T01:38:42.802Z,2.10
2022-09-23T01:41:26.740Z,2.10
2022-09-23T01:44:01.673Z,2.20
2022-09-23T01:46:35.000Z,2.20
2022-09-23T01:49:09.878Z,2.30
2022-09-23T01:51:42.916Z,2.30
2022-09-23T01:54:16.028Z,2.30
2022-09-23T01:56:48.365Z,2.20
2022-09-23T01:59:21.760Z,2.20
2022-09-23T02:01:56.555Z,2.20
2022-09-23T02:04:30.490Z,2.20
2022-09-23T02:07:03.631Z,2.10
2022-09-23T02:09:37.233Z,2.10
2022-09-23T02:12:12.611Z,2.00
2022-09-23T02:14:46.863Z,1.90
2022-09-23T02:17:20.336Z,1.90
2022-09-23T02:19:51.735Z,1.90
2022-09-23T02:22:23.842Z,1.90
2022-09-23T02:24:52.053Z,2.00
2022-09-23T02:27:25.829Z,1.90
2022-09-23T02:29:58.636Z,2.00
2022-09-23T02:32:35.533Z,1.90
2022-09-23T02:35:16.061Z,1.90
2022-09-23T02:37:50.256Z,1.90
2022-09-23T02:40:25.981Z,1.90
2022-09-23T02:43:06.390Z,1.90
2022-09-23T02:45:34.799Z,1.90
2022-09-23T02:48:08.401Z,1.90
2022-09-23T02:50:37.848Z,1.90
2022-09-23T02:53:06.446Z,1.90
2022-09-23T02:55:34.346Z,1.90
2022-09-23T02:58:04.030Z,1.90
2022-09-23T03:00:44.827Z,1.80
2022-09-23T03:03:27.393Z,1.80
2022-09-23T03:05:58.877Z,1.80
2022-09-23T03:08:39.327Z,1.80
2022-09-23T03:11:08.616Z,1.80
2022-09-23T03:13:52.331Z,1.80
2022-09-23T03:16:31.159Z,1.70
2022-09-23T03:19:14.194Z,1.70
2022-09-23T03:21:47.464Z,1.70
2022-09-23T03:24:15.756Z,1.70
2022-09-23T03:26:47.756Z,1.70
2022-09-23T03:29:17.235Z,1.60
2022-09-23T03:31:46.158Z,1.60
2022-09-23T03:34:19.669Z,1.60
2022-09-23T03:36:53.963Z,1.60
2022-09-23T03:39:31.188Z,1.60
2022-09-23T03:42:03.214Z,1.60
2022-09-23T03:44:31.163Z,1.60
2022-09-23T03:47:02.977Z,1.60
2022-09-23T03:49:37.027Z,1.70
2022-09-23T03:52:05.111Z,1.70
2022-09-23T03:54:34.005Z,1.70
2022-09-23T03:57:04.009Z,1.70
2022-09-23T03:59:32.185Z,1.70
2022-09-23T04:02:01.313Z,1.70
2022-09-23T04:04:29.924Z,1.60
2022-09-23T04:06:59.193Z,1.60
2022-09-23T04:09:27.454Z,1.60
2022-09-23T04:11:55.529Z,1.60
2022-09-23T04:14:23.850Z,1.60
2022-09-23T04:16:52.182Z,1.60
2022-09-23T04:19:20.057Z,1.60
2022-09-23T04:21:48.266Z,1.60
2022-09-23T04:24:18.135Z,1.50
2022-09-23T04:26:46.008Z,1.60
2022-09-23T04:29:14.088Z,1.60
2022-09-23T04:31:42.019Z,1.60
2022-09-23T04:34:10.892Z,1.60
2022-09-23T04:36:38.799Z,1.60
2022-09-23T04:39:07.797Z,1.70
2022-09-23T04:41:37.279Z,1.80
2022-09-23T04:44:05.919Z,1.90
2022-09-23T04:46:34.200Z,1.90
2022-09-23T04:49:02.186Z,2.00
2022-09-23T04:51:30.117Z,2.10
2022-09-23T04:53:57.919Z,2.20
2022-09-23T04:56:27.738Z,2.20
2022-09-23T04:58:58.279Z,2.30
2022-09-23T05:01:28.026Z,2.40
2022-09-23T05:03:58.489Z,2.50
2022-09-23T05:06:26.710Z,2.60
2022-09-23T05:08:56.181Z,2.70
2022-09-23T05:11:24.668Z,2.80
2022-09-23T05:13:54.206Z,2.80
2022-09-23T05:16:24.677Z,2.80
2022-09-23T05:18:53.912Z,3.00
2022-09-23T05:21:23.675Z,3.00
2022-09-23T05:23:54.405Z,3.10
2022-09-23T05:26:24.193Z,3.20
2022-09-23T05:28:52.051Z,3.30
2022-09-23T05:31:22.312Z,3.40
2022-09-23T05:33:52.851Z,3.50
2022-09-23T05:36:21.856Z,3.70
2022-09-23T05:38:50.875Z,3.80
2022-09-23T05:41:20.650Z,4.00
2022-09-23T05:43:48.605Z,4.20
2022-09-23T05:46:18.498Z,4.80
2022-09-23T05:48:47.588Z,5.90
2022-09-23T05:51:18.512Z,7.20
2022-09-23T05:53:46.811Z,8.30
2022-09-23T05:56:16.136Z,9.30
2022-09-23T05:58:44.576Z,10.20
2022-09-23T06:01:13.424Z,11.10
2022-09-23T06:03:41.810Z,11.90
2022-09-23T06:06:14.644Z,12.80
2022-09-23T06:08:43.959Z,13.60
2022-09-23T06:11:12.349Z,14.60
2022-09-23T06:13:40.955Z,15.60
2022-09-23T06:16:10.563Z,16.00
2022-09-23T06:18:39.991Z,16.50
2022-09-23T06:21:08.943Z,17.20
2022-09-23T06:23:41.650Z,17.90
2022-09-23T06:26:13.047Z,18.50
2022-09-23T06:28:43.105Z,19.10
2022-09-23T06:31:14.280Z,19.70
2022-09-23T06:33:43.230Z,19.80
2022-09-23T06:36:12.166Z,20.30
2022-09-23T06:38:41.817Z,20.60
2022-09-23T06:41:11.408Z,21.20
2022-09-23T06:43:39.400Z,21.10
2022-09-23T06:46:08.404Z,21.30
2022-09-23T06:48:36.886Z,22.20
2022-09-23T06:51:07.363Z,22.00
2022-09-23T06:53:35.774Z,22.00
2022-09-23T06:56:06.058Z,22.60
2022-09-23T06:58:38.053Z,22.60
2022-09-23T07:01:08.090Z,22.30
2022-09-23T07:03:36.750Z,22.60
2022-09-23T07:06:05.216Z,23.00
2022-09-23T07:08:34.684Z,23.60
2022-09-23T07:11:04.658Z,23.20
2022-09-23T07:13:33.557Z,23.20
2022-09-23T07:16:03.215Z,23.70
2022-09-23T07:18:36.623Z,23.70
2022-09-23T07:21:10.341Z,24.00
2022-09-23T07:23:38.865Z,24.50
2022-09-23T07:26:07.842Z,24.90
2022-09-23T07:28:37.264Z,24.90
2022-09-23T07:31:09.532Z,25.40
2022-09-23T07:33:39.937Z,25.40
2022-09-23T07:36:10.102Z,25.50
2022-09-23T07:38:44.281Z,25.80
2022-09-23T07:41:15.199Z,25.90
2022-09-23T07:43:44.159Z,26.10
2022-09-23T07:46:16.447Z,26.10
2022-09-23T07:48:45.840Z,26.40
2022-09-23T07:51:17.611Z,26.90
2022-09-23T07:53:48.506Z,27.10
2022-09-23T07:56:17.293Z,27.20
2022-09-23T07:58:45.108Z,26.90
2022-09-23T08:01:14.380Z,26.80
2022-09-23T08:03:43.663Z,26.20
2022-09-23T08:06:14.116Z,26.40
2022-09-23T08:08:43.913Z,26.60
2022-09-23T08:11:15.106Z,26.50
2022-09-23T08:13:43.494Z,26.10
2022-09-23T08:16:11.994Z,26.40
2022-09-23T08:18:44.488Z,25.40
2022-09-23T08:21:13.040Z,25.20
2022-09-23T08:23:41.070Z,25.70
2022-09-23T08:26:16.274Z,25.10
2022-09-23T08:28:48.170Z,25.60
2022-09-23T08:31:16.671Z,25.70
2022-09-23T08:33:46.223Z,25.40
2022-09-23T08:36:14.091Z,25.40
2022-09-23T08:38:41.964Z,25.50
2022-09-23T08:41:21.552Z,26.00
2022-09-23T08:43:53.497Z,25.90
2022-09-23T08:46:27.650Z,26.00
2022-09-23T08:48:57.572Z,26.10
2022-09-23T08:51:32.013Z,26.10
2022-09-23T08:54:00.659Z,26.10
2022-09-23T08:56:30.764Z,26.50
2022-09-23T08:59:07.485Z,26.60
2022-09-23T09:01:42.819Z,26.60
2022-09-23T09:04:21.402Z,26.90
2022-09-23T09:06:54.901Z,26.80
2022-09-23T09:09:29.141Z,27.10
2022-09-23T09:12:03.971Z,27.00
2022-09-23T09:14:38.283Z,26.70
2022-09-23T09:17:09.040Z,26.70
2022-09-23T09:20:07.479Z,26.50
2022-09-23T09:22:48.022Z,26.70
2022-09-23T09:25:42.196Z,27.10
2022-09-23T09:28:21.163Z,27.00
2022-09-23T09:30:56.000Z,26.40
2022-09-23T09:33:30.507Z,26.20
2022-09-23T09:36:09.697Z,26.30
2022-09-23T09:38:37.934Z,25.80
2022-09-23T09:41:15.490Z,26.20
2022-09-23T09:43:48.483Z,26.30
2022-09-23T09:46:33.153Z,27.40
2022-09-23T09:49:06.329Z,27.40
2022-09-23T09:51:41.652Z,27.60
2022-09-23T09:54:23.301Z,26.90
2022-09-23T09:56:51.967Z,26.90
2022-09-23T09:59:25.749Z,26.20
2022-09-23T10:02:14.134Z,26.40
2022-09-23T10:04:42.247Z,25.90
2022-09-23T10:07:14.532Z,25.90
2022-09-23T10:09:49.950Z,26.30
2022-09-23T10:12:20.118Z,26.40
2022-09-23T10:14:51.361Z,26.00
2022-09-23T10:17:22.563Z,24.60
2022-09-23T10:19:52.406Z,23.00
2022-09-23T10:22:30.048Z,22.20
2022-09-23T10:25:04.140Z,21.50
2022-09-23T10:27:34.183Z,20.60
2022-09-23T10:30:04.541Z,20.10
2022-09-23T10:32:36.314Z,19.70
2022-09-23T10:35:15.082Z,19.30
2022-09-23T10:37:48.538Z,19.00
2022-09-23T10:40:38.775Z,18.80
2022-09-23T10:43:50.330Z,18.30
2022-09-23T10:46:39.619Z,18.00
2022-09-23T10:49:27.893Z,18.00
2022-09-23T10:52:07.154Z,18.00
2022-09-23T10:54:44.235Z,18.10
2022-09-23T10:57:40.614Z,18.10
2022-09-23T11:00:23.344Z,18.30
2022-09-23T11:03:18.897Z,18.40
2022-09-23T11:05:58.212Z,18.60
2022-09-23T11:08:42.681Z,18.30
2022-09-23T11:11:35.481Z,18.20
2022-09-23T11:14:31.669Z,18.20
2022-09-23T11:17:27.037Z,18.00
2022-09-23T11:20:16.040Z,18.00
2022-09-23T11:22:57.395Z,17.90
2022-09-23T11:25:39.966Z,17.80
2022-09-23T11:28:30.751Z,17.80
2022-09-23T11:31:07.382Z,17.60
2022-09-23T11:33:46.644Z,17.70
2022-09-23T11:36:25.013Z,17.80
2022-09-23T11:38:55.909Z,17.90
2022-09-23T11:41:28.869Z,18.10
2022-09-23T11:44:04.460Z,18.10
2022-09-23T11:46:39.160Z,18.00
2022-09-23T11:49:14.088Z,18.10
2022-09-23T11:51:48.317Z,18.00
2022-09-23T11:54:21.510Z,17.90
2022-09-23T11:56:54.368Z,17.90
2022-09-23T11:59:40.122Z,18.10
2022-09-23T12:02:20.968Z,18.10
2022-09-23T12:05:01.437Z,18.20
2022-09-23T12:07:39.627Z,18.10
2022-09-23T12:10:09.593Z,18.10
2022-09-23T12:12:47.956Z,18.00
2022-09-23T12:15:35.591Z,18.00
2022-09-23T12:18:33.019Z,17.90
2022-09-23T12:21:50.568Z,17.80
2022-09-23T12:24:32.294Z,17.60
2022-09-23T12:27:02.968Z,17.30
2022-09-23T12:29:33.047Z,17.40
2022-09-23T12:32:07.383Z,17.30
2022-09-23T12:34:41.545Z,17.50
2022-09-23T12:37:09.533Z,17.80
2022-09-23T12:39:39.743Z,17.90
2022-09-23T12:42:19.594Z,18.30
2022-09-23T12:44:48.975Z,18.40
2022-09-23T12:47:39.792Z,18.50
2022-09-23T12:50:45.138Z,18.30
2022-09-23T12:53:53.332Z,18.10
2022-09-23T12:56:23.800Z,18.00
2022-09-23T12:59:03.428Z,17.90
2022-09-23T13:01:38.369Z,17.50
2022-09-23T13:04:45.360Z,17.20
2022-09-23T13:07:17.153Z,17.10
2022-09-23T13:09:49.217Z,17.20
2022-09-23T13:12:21.593Z,17.20
2022-09-23T13:14:51.980Z,17.40
2022-09-23T13:17:26.718Z,17.40
2022-09-23T13:20:05.787Z,17.60
2022-09-23T13:23:05.915Z,17.80
2022-09-23T13:25:40.121Z,17.90
2022-09-23T13:28:21.560Z,17.90
2022-09-23T13:30:52.248Z,17.90
2022-09-23T13:33:29.694Z,18.00
2022-09-23T13:36:04.165Z,17.90
2022-09-23T13:38:35.431Z,17.90
2022-09-23T13:41:06.182Z,17.80
2022-09-23T13:43:41.363Z,17.70
2022-09-23T13:46:13.359Z,17.60
2022-09-23T13:48:44.526Z,17.50
2022-09-23T13:51:21.748Z,17.20
2022-09-23T13:53:54.438Z,17.20
2022-09-23T13:56:23.508Z,17.10
2022-09-23T13:58:52.319Z,17.20
2022-09-23T14:01:30.544Z,17.10
2022-09-23T14:03:58.565Z,17.20
2022-09-23T14:06:28.331Z,17.30
2022-09-23T14:08:58.451Z,17.30
2022-09-23T14:11:33.109Z,17.30
2022-09-23T14:14:07.150Z,17.40
2022-09-23T14:16:39.344Z,17.40
2022-09-23T14:19:08.088Z,17.50
2022-09-23T14:21:38.946Z,17.60
2022-09-23T14:24:15.102Z,17.80
2022-09-23T14:26:45.209Z,17.90
2022-09-23T14:29:16.427Z,17.90
2022-09-23T14:31:56.950Z,17.90
2022-09-23T14:34:42.954Z,17.70
2022-09-23T14:37:39.960Z,17.80
2022-09-23T14:40:16.111Z,17.70
2022-09-23T14:42:46.947Z,17.50
2022-09-23T14:45:18.543Z,17.40
2022-09-23T14:47:49.936Z,17.40
2022-09-23T14:50:47.356Z,17.20
2022-09-23T14:53:40.320Z,16.90
2022-09-23T14:56:22.388Z,16.80
2022-09-23T14:58:53.556Z,16.80
2022-09-23T15:01:40.257Z,16.70
2022-09-23T15:04:29.559Z,16.50
2022-09-23T15:07:07.551Z,16.40
2022-09-23T15:09:40.423Z,16.20
2022-09-23T15:12:13.539Z,16.10
2022-09-23T15:14:43.659Z,16.10
2022-09-23T15:17:25.726Z,16.00
2022-09-23T15:19:57.128Z,16.00
2022-09-23T15:22:25.788Z,16.00
2022-09-23T15:24:56.420Z,16.00
2022-09-23T15:27:34.939Z,16.00
2022-09-23T15:30:15.221Z,16.00
2022-09-23T15:32:44.033Z,15.90
2022-09-23T15:35:15.858Z,15.80
2022-09-23T15:37:44.740Z,15.70
2022-09-23T15:40:20.962Z,15.60
2022-09-23T15:42:51.616Z,15.50
2022-09-23T15:45:22.401Z,15.40
2022-09-23T15:47:52.357Z,15.30
2022-09-23T15:50:20.736Z,15.20
2022-09-23T15:52:48.729Z,15.10
2022-09-23T15:55:21.889Z,15.00
2022-09-23T15:57:50.177Z,14.90
2022-09-23T16:00:18.584Z,14.80
2022-09-23T16:02:48.633Z,14.70
2022-09-23T16:05:25.543Z,14.60
2022-09-23T16:07:53.492Z,14.40
2022-09-23T16:10:24.960Z,14.20
2022-09-23T16:12:54.728Z,14.00
2022-09-23T16:15:24.981Z,13.80
2022-09-23T16:17:53.168Z,13.60
2022-09-23T16:20:21.078Z,13.40
2022-09-23T16:22:54.025Z,13.20
2022-09-23T16:25:28.265Z,13.00
2022-09-23T16:27:56.633Z,12.80
2022-09-23T16:30:25.226Z,12.60
2022-09-23T16:32:53.629Z,12.40
2022-09-23T16:35:22.108Z,12.20
2022-09-23T16:37:51.686Z,12.00
2022-09-23T16:40:22.865Z,11.80
2022-09-23T16:42:55.059Z,11.60
2022-09-23T16:45:24.383Z,11.40
2022-09-23T16:47:53.116Z,11.20
2022-09-23T16:50:26.085Z,11.00
2022-09-23T16:52:57.961Z,10.80
2022-09-23T16:55:27.538Z,10.60
2022-09-23T16:57:57.286Z,10.40
2022-09-23T17:00:43.140Z,10.20
2022-09-23T17:03:31.361Z,10.00
2022-09-23T17:06:01.556Z,9.80
2022-09-23T17:08:32.577Z,9.60
2022-09-23T17:11:01.773Z,9.40
2022-09-23T17:13:32.638Z,9.20
2022-09-23T17:16:01.078Z,9.00
2022-09-23T17:18:29.770Z,8.90
2022-09-23T17:20:59.589Z,8.70
2022-09-23T17:23:28.342Z,8.50
2022-09-23T17:25:57.416Z,8.40
2022-09-23T17:28:25.624Z,8.20
2022-09-23T17:30:59.058Z,8.10
2022-09-23T17:33:28.352Z,8.00
2022-09-23T17:35:57.768Z,7.80
2022-09-23T17:38:29.170Z,7.80
2022-09-23T17:40:59.089Z,7.60
2022-09-23T17:43:27.105Z,7.60
2022-09-23T17:45:58.275Z,7.50
2022-09-23T17:48:26.557Z,7.50
2022-09-23T17:50:58.768Z,7.40
2022-09-23T17:53:27.011Z,7.30
2022-09-23T17:55:59.201Z,7.30
2022-09-23T17:58:28.737Z,7.20
2022-09-23T18:00:58.691Z,7.20
2022-09-23T18:03:28.641Z,7.20
2022-09-23T18:06:06.394Z,7.10
2022-09-23T18:08:34.616Z,7.10
2022-09-23T18:11:02.634Z,7.00
2022-09-23T18:13:30.716Z,7.00
2022-09-23T18:16:03.696Z,6.90
2022-09-23T18:18:31.981Z,6.80
2022-09-23T18:21:03.581Z,6.80
2022-09-23T18:23:31.738Z,6.70
2022-09-23T18:25:59.692Z,6.60
2022-09-23T18:28:34.670Z,6.60
2022-09-23T18:31:04.330Z,6.50
2022-09-23T18:33:32.544Z,6.50
2022-09-23T18:36:01.167Z,6.50
2022-09-23T18:38:29.403Z,6.50
2022-09-23T18:40:58.938Z,6.50
2022-09-23T18:43:37.485Z,6.50
2022-09-23T18:46:13.294Z,6.50
2022-09-23T18:48:59.250Z,6.40
2022-09-23T18:51:29.109Z,6.40
2022-09-23T18:53:58.678Z,6.30
2022-09-23T18:56:29.589Z,6.30
2022-09-23T18:58:57.923Z,6.20
2022-09-23T19:01:27.561Z,6.20
2022-09-23T19:03:56.571Z,6.10
2022-09-23T19:06:25.544Z,6.10
2022-09-23T19:08:55.388Z,6.00
2022-09-23T19:11:53.387Z,6.00
2022-09-23T19:14:21.750Z,6.00
2022-09-23T19:16:51.128Z,5.90
2022-09-23T19:19:19.056Z,5.90
2022-09-23T19:21:47.071Z,5.90
2022-09-23T19:24:16.115Z,5.90
2022-09-23T19:26:45.084Z,6.00
2022-09-23T19:29:15.831Z,6.00
2022-09-23T19:31:44.189Z,6.10
2022-09-23T19:34:15.886Z,6.10
2022-09-23T19:36:45.622Z,6.20
2022-09-23T19:39:17.647Z,6.30
2022-09-23T19:41:46.144Z,6.40
2022-09-23T19:44:14.402Z,6.40
2022-09-23T19:46:45.440Z,6.40
2022-09-23T19:49:15.126Z,6.60
2022-09-23T19:51:44.197Z,6.70
2022-09-23T19:54:12.886Z,6.70
2022-09-23T19:56:40.944Z,6.80
2022-09-23T19:59:09.455Z,6.80
2022-09-23T20:01:37.631Z,6.90
2022-09-23T20:04:05.762Z,6.90
2022-09-23T20:06:37.985Z,6.90
2022-09-23T20:09:06.841Z,6.90
2022-09-23T20:11:35.153Z,6.90
2022-09-23T20:14:05.893Z,6.90
2022-09-23T20:16:35.923Z,6.90
2022-09-23T20:19:04.914Z,6.90
2022-09-23T20:21:33.665Z,6.90
2022-09-23T20:24:04.464Z,7.00
2022-09-23T20:26:49.913Z,7.00
2022-09-23T20:29:17.978Z,6.90
2022-09-23T20:31:46.108Z,7.00
2022-09-23T20:34:14.135Z,6.90
2022-09-23T20:36:42.632Z,6.90
2022-09-23T20:39:11.984Z,6.90
2022-09-23T20:41:40.390Z,7.00
2022-09-23T20:44:12.589Z,6.90
2022-09-23T20:46:47.455Z,7.00
2022-09-23T20:49:16.134Z,7.00
2022-09-23T20:51:44.034Z,7.00
2022-09-23T20:54:13.726Z,7.00
2022-09-23T20:56:41.639Z,7.10
2022-09-23T20:59:11.298Z,7.10
2022-09-23T21:01:39.275Z,7.10
2022-09-23T21:04:09.853Z,7.10
2022-09-23T21:06:39.721Z,7.10
2022-09-23T21:09:08.645Z,7.20
2022-09-23T21:11:38.237Z,7.20
2022-09-23T21:14:06.284Z,7.20
2022-09-23T21:16:34.353Z,7.20
2022-09-23T21:19:03.847Z,7.20
2022-09-23T21:21:31.788Z,7.20
2022-09-23T21:24:17.210Z,7.20
2022-09-23T21:26:47.914Z,7.20
2022-09-23T21:29:15.882Z,7.20
2022-09-23T21:31:43.854Z,7.10
2022-09-23T21:34:14.508Z,7.10
2022-09-23T21:36:44.164Z,7.10
2022-09-23T21:39:13.025Z,7.00
2022-09-23T21:41:41.301Z,7.10
2022-09-23T21:44:11.397Z,7.00
2022-09-23T21:46:39.676Z,7.00
2022-09-23T21:49:09.400Z,7.00
2022-09-23T21:51:40.688Z,7.00
2022-09-23T21:54:12.763Z,7.00
2022-09-23T21:56:40.841Z,6.90
2022-09-23T21:59:10.901Z,6.90
2022-09-23T22:01:44.644Z,6.90
2022-09-23T22:04:16.933Z,6.90
2022-09-23T22:06:45.770Z,6.90
2022-09-23T22:09:15.552Z,6.90
2022-09-23T22:12:02.659Z,6.90
2022-09-23T22:14:33.302Z,6.90
2022-09-23T22:17:03.759Z,6.80
2022-09-23T22:19:35.469Z,6.90
2022-09-23T22:22:08.107Z,6.90
2022-09-23T22:24:36.047Z,6.90
2022-09-23T22:27:03.948Z,6.90
2022-09-23T22:29:50.733Z,6.90
2022-09-23T22:32:41.667Z,7.00
2022-09-23T22:35:11.105Z,7.10
2022-09-23T22:37:39.603Z,7.10
2022-09-23T22:40:10.144Z,7.10
2022-09-23T22:42:41.563Z,7.20
2022-09-23T22:45:12.883Z,7.30
2022-09-23T22:47:45.525Z,7.30
2022-09-23T22:50:15.061Z,7.30
2022-09-23T22:52:43.734Z,7.30
2022-09-23T22:55:12.329Z,7.20
2022-09-23T22:57:40.393Z,7.20
2022-09-23T23:00:12.281Z,7.10
2022-09-23T23:02:42.393Z,7.10
2022-09-23T23:05:10.720Z,7.00
2022-09-23T23:07:38.704Z,6.90
2022-09-23T23:10:10.132Z,6.90
2022-09-23T23:12:40.127Z,6.80
2022-09-23T23:15:12.935Z,6.80
2022-09-23T23:17:43.624Z,6.80
2022-09-23T23:20:11.807Z,6.70
2022-09-23T23:22:39.730Z,6.70
2022-09-23T23:25:09.090Z,6.70
2022-09-23T23:27:37.012Z,6.70
2022-09-23T23:30:05.420Z,6.60
2022-09-23T23:32:34.694Z,6.70
2022-09-23T23:35:02.662Z,6.70
2022-09-23T23:37:30.821Z,6.60
2022-09-23T23:39:58.756Z,6.60
2022-09-23T23:42:27.175Z,6.60
2022-09-23T23:44:55.251Z,6.60
2022-09-23T23:47:23.366Z,6.50
2022-09-23T23:49:52.731Z,6.50
2022-09-23T23:52:20.696Z,6.50
2022-09-23T23:54:48.661Z,6.50
2022-09-23T23:57:16.622Z,6.50
2022-09-23T23:59:44.530Z,6.40
